sensor_id;sensor_type;location;lat;lon;timestamp;P1;durP1;ratioP1;P2;durP2;ratioP2
1751;SDS011;873;47.696;8.068;2024-03-08T00:01:41;25.33;;;10.73;;
1751;SDS011;873;47.696;8.068;2024-03-08T00:04:07;22.03;;;9.43;;
1751;SDS011;873;47.696;8.068;2024-03-08T00:06:33;21.70;;;11.20;;
1751;SDS011;873;47.696;8.068;2024-03-08T00:08:58;19.57;;;9.43;;
1751;SDS011;873;47.696;8.068;2024-03-08T00:11:24;22.93;;;9.80;;
1751;SDS011;873;47.696;8.068;2024-03-08T00:13:52;20.03;;;9.47;;
1751;SDS011;873;47.696;8.068;2024-03-08T00:16:18;21.93;;;10.60;;
1751;SDS011;873;47.696;8.068;2024-03-08T00:18:44;17.40;;;9.67;;
1751;SDS011;873;47.696;8.068;2024-03-08T00:21:10;20.50;;;9.90;;
1751;SDS011;873;47.696;8.068;2024-03-08T00:23:37;17.57;;;10.43;;
1751;SDS011;873;47.696;8.068;2024-03-08T00:26:04;14.77;;;8.93;;
1751;SDS011;873;47.696;8.068;2024-03-08T00:28:32;20.43;;;9.37;;
1751;SDS011;873;47.696;8.068;2024-03-08T00:31:00;21.23;;;10.07;;
1751;SDS011;873;47.696;8.068;2024-03-08T00:33:26;17.63;;;9.03;;
1751;SDS011;873;47.696;8.068;2024-03-08T00:35:52;17.20;;;9.30;;
1751;SDS011;873;47.696;8.068;2024-03-08T00:38:21;21.03;;;10.10;;
1751;SDS011;873;47.696;8.068;2024-03-08T00:40:46;17.17;;;9.30;;
1751;SDS011;873;47.696;8.068;2024-03-08T00:43:12;22.40;;;9.27;;
1751;SDS011;873;47.696;8.068;2024-03-08T00:45:38;23.20;;;9.23;;
1751;SDS011;873;47.696;8.068;2024-03-08T00:48:04;18.23;;;8.80;;
1751;SDS011;873;47.696;8.068;2024-03-08T00:50:31;19.83;;;9.03;;
1751;SDS011;873;47.696;8.068;2024-03-08T00:52:56;23.37;;;8.67;;
1751;SDS011;873;47.696;8.068;2024-03-08T00:55:22;22.73;;;9.03;;
1751;SDS011;873;47.696;8.068;2024-03-08T00:57:48;23.53;;;9.77;;
1751;SDS011;873;47.696;8.068;2024-03-08T01:00:14;20.10;;;8.57;;
1751;SDS011;873;47.696;8.068;2024-03-08T01:02:39;15.00;;;7.97;;
1751;SDS011;873;47.696;8.068;2024-03-08T01:05:05;19.93;;;8.53;;
1751;SDS011;873;47.696;8.068;2024-03-08T01:07:34;17.57;;;8.10;;
1751;SDS011;873;47.696;8.068;2024-03-08T01:10:01;18.73;;;8.17;;
1751;SDS011;873;47.696;8.068;2024-03-08T01:12:34;14.83;;;7.90;;
1751;SDS011;873;47.696;8.068;2024-03-08T01:15:00;19.53;;;8.43;;
1751;SDS011;873;47.696;8.068;2024-03-08T01:17:26;19.00;;;10.50;;
1751;SDS011;873;47.696;8.068;2024-03-08T01:19:52;22.67;;;9.57;;
1751;SDS011;873;47.696;8.068;2024-03-08T01:22:18;18.13;;;8.67;;
1751;SDS011;873;47.696;8.068;2024-03-08T01:24:44;16.37;;;7.07;;
1751;SDS011;873;47.696;8.068;2024-03-08T01:27:10;18.80;;;7.53;;
1751;SDS011;873;47.696;8.068;2024-03-08T01:29:37;15.03;;;7.63;;
1751;SDS011;873;47.696;8.068;2024-03-08T01:32:03;18.97;;;8.80;;
1751;SDS011;873;47.696;8.068;2024-03-08T01:34:29;17.07;;;8.33;;
1751;SDS011;873;47.696;8.068;2024-03-08T01:36:55;19.03;;;7.83;;
1751;SDS011;873;47.696;8.068;2024-03-08T01:39:23;16.97;;;7.17;;
1751;SDS011;873;47.696;8.068;2024-03-08T01:41:49;15.63;;;8.27;;
1751;SDS011;873;47.696;8.068;2024-03-08T01:44:14;20.07;;;8.43;;
1751;SDS011;873;47.696;8.068;2024-03-08T01:46:45;16.23;;;8.07;;
1751;SDS011;873;47.696;8.068;2024-03-08T01:49:12;19.10;;;8.10;;
1751;SDS011;873;47.696;8.068;2024-03-08T01:51:38;19.53;;;7.50;;
1751;SDS011;873;47.696;8.068;2024-03-08T01:54:05;16.40;;;7.50;;
1751;SDS011;873;47.696;8.068;2024-03-08T01:56:31;22.53;;;8.30;;
1751;SDS011;873;47.696;8.068;2024-03-08T01:58:57;17.73;;;7.27;;
1751;SDS011;873;47.696;8.068;2024-03-08T02:01:24;14.00;;;6.13;;
1751;SDS011;873;47.696;8.068;2024-03-08T02:03:50;17.40;;;7.23;;
1751;SDS011;873;47.696;8.068;2024-03-08T02:06:15;16.40;;;8.37;;
1751;SDS011;873;47.696;8.068;2024-03-08T02:08:42;17.07;;;8.03;;
1751;SDS011;873;47.696;8.068;2024-03-08T02:11:09;11.63;;;6.30;;
1751;SDS011;873;47.696;8.068;2024-03-08T02:13:35;14.47;;;7.57;;
1751;SDS011;873;47.696;8.068;2024-03-08T02:16:00;16.73;;;8.63;;
1751;SDS011;873;47.696;8.068;2024-03-08T02:18:27;13.50;;;6.73;;
1751;SDS011;873;47.696;8.068;2024-03-08T02:20:54;15.87;;;6.77;;
1751;SDS011;873;47.696;8.068;2024-03-08T02:23:21;17.00;;;7.77;;
1751;SDS011;873;47.696;8.068;2024-03-08T02:25:47;19.33;;;7.67;;
1751;SDS011;873;47.696;8.068;2024-03-08T02:28:13;16.10;;;7.70;;
1751;SDS011;873;47.696;8.068;2024-03-08T02:30:39;19.60;;;6.20;;
1751;SDS011;873;47.696;8.068;2024-03-08T02:33:05;13.53;;;6.73;;
1751;SDS011;873;47.696;8.068;2024-03-08T02:35:32;11.63;;;5.50;;
1751;SDS011;873;47.696;8.068;2024-03-08T02:37:58;15.87;;;6.60;;
1751;SDS011;873;47.696;8.068;2024-03-08T02:40:28;16.77;;;7.80;;
1751;SDS011;873;47.696;8.068;2024-03-08T02:42:54;16.87;;;7.63;;
1751;SDS011;873;47.696;8.068;2024-03-08T02:45:19;17.53;;;8.70;;
1751;SDS011;873;47.696;8.068;2024-03-08T02:47:45;18.00;;;7.80;;
1751;SDS011;873;47.696;8.068;2024-03-08T02:50:11;18.47;;;6.47;;
1751;SDS011;873;47.696;8.068;2024-03-08T02:52:39;20.83;;;8.20;;
1751;SDS011;873;47.696;8.068;2024-03-08T02:55:07;20.98;;;7.72;;
1751;SDS011;873;47.696;8.068;2024-03-08T02:57:33;18.38;;;8.00;;
1751;SDS011;873;47.696;8.068;2024-03-08T02:59:59;25.67;;;7.20;;
1751;SDS011;873;47.696;8.068;2024-03-08T03:02:27;17.63;;;7.57;;
1751;SDS011;873;47.696;8.068;2024-03-08T03:04:53;17.50;;;7.67;;
1751;SDS011;873;47.696;8.068;2024-03-08T03:07:21;15.02;;;7.10;;
1751;SDS011;873;47.696;8.068;2024-03-08T03:09:47;18.13;;;6.57;;
1751;SDS011;873;47.696;8.068;2024-03-08T03:12:12;15.23;;;5.57;;
1751;SDS011;873;47.696;8.068;2024-03-08T03:14:39;18.83;;;6.18;;
1751;SDS011;873;47.696;8.068;2024-03-08T03:17:04;18.27;;;6.43;;
1751;SDS011;873;47.696;8.068;2024-03-08T03:19:30;16.13;;;7.33;;
1751;SDS011;873;47.696;8.068;2024-03-08T03:21:56;15.47;;;6.37;;
1751;SDS011;873;47.696;8.068;2024-03-08T03:24:22;15.13;;;6.97;;
1751;SDS011;873;47.696;8.068;2024-03-08T03:26:48;14.93;;;5.40;;
1751;SDS011;873;47.696;8.068;2024-03-08T03:29:14;19.45;;;6.65;;
1751;SDS011;873;47.696;8.068;2024-03-08T03:31:41;24.10;;;7.75;;
1751;SDS011;873;47.696;8.068;2024-03-08T03:34:07;18.37;;;7.73;;
1751;SDS011;873;47.696;8.068;2024-03-08T03:36:33;13.15;;;5.15;;
1751;SDS011;873;47.696;8.068;2024-03-08T03:39:00;16.05;;;6.60;;
1751;SDS011;873;47.696;8.068;2024-03-08T03:41:37;16.40;;;5.93;;
1751;SDS011;873;47.696;8.068;2024-03-08T03:44:04;12.02;;;6.07;;
1751;SDS011;873;47.696;8.068;2024-03-08T03:46:32;12.63;;;6.28;;
1751;SDS011;873;47.696;8.068;2024-03-08T03:48:58;13.82;;;6.80;;
1751;SDS011;873;47.696;8.068;2024-03-08T03:51:24;12.67;;;5.30;;
1751;SDS011;873;47.696;8.068;2024-03-08T03:53:51;19.52;;;6.78;;
1751;SDS011;873;47.696;8.068;2024-03-08T03:56:17;15.57;;;6.20;;
1751;SDS011;873;47.696;8.068;2024-03-08T03:58:43;19.63;;;7.67;;
1751;SDS011;873;47.696;8.068;2024-03-08T04:01:09;19.23;;;6.23;;
1751;SDS011;873;47.696;8.068;2024-03-08T04:03:35;17.13;;;7.23;;
1751;SDS011;873;47.696;8.068;2024-03-08T04:06:02;15.50;;;7.30;;
1751;SDS011;873;47.696;8.068;2024-03-08T04:08:29;17.15;;;7.75;;
1751;SDS011;873;47.696;8.068;2024-03-08T04:10:55;18.33;;;6.63;;
1751;SDS011;873;47.696;8.068;2024-03-08T04:13:20;16.77;;;6.20;;
1751;SDS011;873;47.696;8.068;2024-03-08T04:15:46;20.20;;;6.27;;
1751;SDS011;873;47.696;8.068;2024-03-08T04:18:15;14.30;;;5.65;;
1751;SDS011;873;47.696;8.068;2024-03-08T04:20:40;15.80;;;6.77;;
1751;SDS011;873;47.696;8.068;2024-03-08T04:23:06;13.20;;;5.33;;
1751;SDS011;873;47.696;8.068;2024-03-08T04:25:32;19.80;;;7.07;;
1751;SDS011;873;47.696;8.068;2024-03-08T04:27:58;20.40;;;7.30;;
1751;SDS011;873;47.696;8.068;2024-03-08T04:30:23;18.80;;;6.20;;
1751;SDS011;873;47.696;8.068;2024-03-08T04:32:49;13.80;;;7.10;;
1751;SDS011;873;47.696;8.068;2024-03-08T04:35:15;12.73;;;6.20;;
1751;SDS011;873;47.696;8.068;2024-03-08T04:37:41;24.17;;;7.72;;
1751;SDS011;873;47.696;8.068;2024-03-08T04:40:08;20.42;;;8.10;;
1751;SDS011;873;47.696;8.068;2024-03-08T04:42:33;21.50;;;8.13;;
1751;SDS011;873;47.696;8.068;2024-03-08T04:45:00;17.08;;;7.55;;
1751;SDS011;873;47.696;8.068;2024-03-08T04:47:25;14.93;;;7.10;;
1751;SDS011;873;47.696;8.068;2024-03-08T04:49:51;22.47;;;7.63;;
1751;SDS011;873;47.696;8.068;2024-03-08T04:52:16;15.43;;;6.10;;
1751;SDS011;873;47.696;8.068;2024-03-08T04:54:42;14.17;;;6.93;;
1751;SDS011;873;47.696;8.068;2024-03-08T04:57:09;14.85;;;7.72;;
1751;SDS011;873;47.696;8.068;2024-03-08T04:59:36;28.10;;;7.30;;
1751;SDS011;873;47.696;8.068;2024-03-08T05:02:02;15.57;;;6.47;;
1751;SDS011;873;47.696;8.068;2024-03-08T05:04:27;24.20;;;7.20;;
1751;SDS011;873;47.696;8.068;2024-03-08T05:06:54;19.52;;;7.00;;
1751;SDS011;873;47.696;8.068;2024-03-08T05:09:20;19.33;;;6.82;;
1751;SDS011;873;47.696;8.068;2024-03-08T05:11:46;19.37;;;7.80;;
1751;SDS011;873;47.696;8.068;2024-03-08T05:14:12;13.93;;;6.50;;
1751;SDS011;873;47.696;8.068;2024-03-08T05:16:45;19.27;;;6.10;;
1751;SDS011;873;47.696;8.068;2024-03-08T05:19:17;21.17;;;6.22;;
1751;SDS011;873;47.696;8.068;2024-03-08T05:21:44;20.60;;;7.00;;
1751;SDS011;873;47.696;8.068;2024-03-08T05:24:10;15.90;;;6.07;;
1751;SDS011;873;47.696;8.068;2024-03-08T05:26:35;14.73;;;6.43;;
1751;SDS011;873;47.696;8.068;2024-03-08T05:29:02;15.77;;;6.93;;
1751;SDS011;873;47.696;8.068;2024-03-08T05:31:28;15.05;;;6.50;;
1751;SDS011;873;47.696;8.068;2024-03-08T05:33:54;17.70;;;6.87;;
1751;SDS011;873;47.696;8.068;2024-03-08T05:36:20;12.75;;;5.78;;
1751;SDS011;873;47.696;8.068;2024-03-08T05:38:46;14.77;;;6.78;;
1751;SDS011;873;47.696;8.068;2024-03-08T05:41:12;16.07;;;7.23;;
1751;SDS011;873;47.696;8.068;2024-03-08T05:43:38;17.17;;;7.67;;
1751;SDS011;873;47.696;8.068;2024-03-08T05:46:04;12.93;;;5.63;;
1751;SDS011;873;47.696;8.068;2024-03-08T05:48:29;12.00;;;5.53;;
1751;SDS011;873;47.696;8.068;2024-03-08T05:50:57;13.15;;;6.55;;
1751;SDS011;873;47.696;8.068;2024-03-08T05:53:23;13.40;;;6.03;;
1751;SDS011;873;47.696;8.068;2024-03-08T05:55:49;18.80;;;6.37;;
1751;SDS011;873;47.696;8.068;2024-03-08T05:58:14;12.30;;;5.20;;
1751;SDS011;873;47.696;8.068;2024-03-08T06:00:40;12.23;;;5.00;;
1751;SDS011;873;47.696;8.068;2024-03-08T06:03:06;13.87;;;6.07;;
1751;SDS011;873;47.696;8.068;2024-03-08T06:05:32;14.68;;;6.03;;
1751;SDS011;873;47.696;8.068;2024-03-08T06:07:58;14.93;;;6.47;;
1751;SDS011;873;47.696;8.068;2024-03-08T06:10:24;12.53;;;5.23;;
1751;SDS011;873;47.696;8.068;2024-03-08T06:12:50;13.90;;;6.43;;
1751;SDS011;873;47.696;8.068;2024-03-08T06:15:16;11.73;;;5.32;;
1751;SDS011;873;47.696;8.068;2024-03-08T06:17:42;14.03;;;6.47;;
1751;SDS011;873;47.696;8.068;2024-03-08T06:20:08;15.77;;;6.83;;
1751;SDS011;873;47.696;8.068;2024-03-08T06:22:38;13.18;;;6.03;;
1751;SDS011;873;47.696;8.068;2024-03-08T06:25:13;12.52;;;6.20;;
1751;SDS011;873;47.696;8.068;2024-03-08T06:27:41;15.68;;;5.45;;
1751;SDS011;873;47.696;8.068;2024-03-08T06:30:08;9.73;;;5.30;;
1751;SDS011;873;47.696;8.068;2024-03-08T06:32:35;12.85;;;5.43;;
1751;SDS011;873;47.696;8.068;2024-03-08T06:35:01;12.10;;;5.67;;
1751;SDS011;873;47.696;8.068;2024-03-08T06:37:31;12.32;;;4.53;;
1751;SDS011;873;47.696;8.068;2024-03-08T06:40:00;10.23;;;4.80;;
1751;SDS011;873;47.696;8.068;2024-03-08T06:42:28;10.63;;;4.43;;
1751;SDS011;873;47.696;8.068;2024-03-08T06:44:54;14.75;;;5.50;;
1751;SDS011;873;47.696;8.068;2024-03-08T06:47:25;9.27;;;4.32;;
1751;SDS011;873;47.696;8.068;2024-03-08T06:49:51;10.33;;;5.67;;
1751;SDS011;873;47.696;8.068;2024-03-08T06:52:17;8.97;;;5.20;;
1751;SDS011;873;47.696;8.068;2024-03-08T06:54:43;13.43;;;5.57;;
1751;SDS011;873;47.696;8.068;2024-03-08T06:57:08;13.37;;;5.87;;
1751;SDS011;873;47.696;8.068;2024-03-08T06:59:35;10.80;;;5.50;;
1751;SDS011;873;47.696;8.068;2024-03-08T07:02:01;11.53;;;5.57;;
1751;SDS011;873;47.696;8.068;2024-03-08T07:04:27;9.87;;;4.20;;
1751;SDS011;873;47.696;8.068;2024-03-08T07:06:58;16.07;;;5.33;;
1751;SDS011;873;47.696;8.068;2024-03-08T07:09:23;12.80;;;5.13;;
1751;SDS011;873;47.696;8.068;2024-03-08T07:11:50;10.57;;;5.60;;
1751;SDS011;873;47.696;8.068;2024-03-08T07:14:23;10.33;;;4.53;;
1751;SDS011;873;47.696;8.068;2024-03-08T07:16:49;13.07;;;5.47;;
1751;SDS011;873;47.696;8.068;2024-03-08T07:19:15;8.27;;;4.60;;
1751;SDS011;873;47.696;8.068;2024-03-08T07:21:44;9.07;;;4.03;;
1751;SDS011;873;47.696;8.068;2024-03-08T07:24:10;7.47;;;4.97;;
1751;SDS011;873;47.696;8.068;2024-03-08T07:26:41;11.00;;;4.63;;
1751;SDS011;873;47.696;8.068;2024-03-08T07:29:07;12.00;;;5.17;;
1751;SDS011;873;47.696;8.068;2024-03-08T07:31:33;8.73;;;4.73;;
1751;SDS011;873;47.696;8.068;2024-03-08T07:34:37;8.00;;;4.87;;
1751;SDS011;873;47.696;8.068;2024-03-08T07:37:05;8.80;;;4.17;;
1751;SDS011;873;47.696;8.068;2024-03-08T07:39:36;8.27;;;4.17;;
1751;SDS011;873;47.696;8.068;2024-03-08T07:42:03;13.77;;;4.43;;
1751;SDS011;873;47.696;8.068;2024-03-08T07:44:28;8.27;;;3.90;;
1751;SDS011;873;47.696;8.068;2024-03-08T07:46:54;7.63;;;5.27;;
1751;SDS011;873;47.696;8.068;2024-03-08T07:49:20;9.60;;;4.77;;
1751;SDS011;873;47.696;8.068;2024-03-08T07:51:45;8.50;;;4.90;;
1751;SDS011;873;47.696;8.068;2024-03-08T07:54:11;8.20;;;4.33;;
1751;SDS011;873;47.696;8.068;2024-03-08T07:56:37;6.33;;;3.57;;
1751;SDS011;873;47.696;8.068;2024-03-08T07:59:02;5.93;;;3.63;;
1751;SDS011;873;47.696;8.068;2024-03-08T08:01:29;9.40;;;4.67;;
1751;SDS011;873;47.696;8.068;2024-03-08T08:03:56;7.47;;;4.73;;
1751;SDS011;873;47.696;8.068;2024-03-08T08:06:22;7.23;;;4.17;;
1751;SDS011;873;47.696;8.068;2024-03-08T08:08:47;9.33;;;4.57;;
1751;SDS011;873;47.696;8.068;2024-03-08T08:11:13;7.50;;;4.37;;
1751;SDS011;873;47.696;8.068;2024-03-08T08:13:41;12.23;;;5.33;;
1751;SDS011;873;47.696;8.068;2024-03-08T08:16:08;8.07;;;4.07;;
1751;SDS011;873;47.696;8.068;2024-03-08T08:18:35;6.83;;;4.13;;
1751;SDS011;873;47.696;8.068;2024-03-08T08:21:02;8.40;;;4.20;;
1751;SDS011;873;47.696;8.068;2024-03-08T08:23:28;8.47;;;4.67;;
1751;SDS011;873;47.696;8.068;2024-03-08T08:25:55;7.97;;;4.37;;
1751;SDS011;873;47.696;8.068;2024-03-08T08:28:20;8.17;;;4.33;;
1751;SDS011;873;47.696;8.068;2024-03-08T08:30:46;7.23;;;4.30;;
1751;SDS011;873;47.696;8.068;2024-03-08T08:33:11;8.90;;;4.43;;
1751;SDS011;873;47.696;8.068;2024-03-08T08:35:37;9.23;;;4.97;;
1751;SDS011;873;47.696;8.068;2024-03-08T08:38:04;9.37;;;4.77;;
1751;SDS011;873;47.696;8.068;2024-03-08T08:40:29;7.83;;;3.63;;
1751;SDS011;873;47.696;8.068;2024-03-08T08:42:58;7.47;;;3.90;;
1751;SDS011;873;47.696;8.068;2024-03-08T08:45:25;9.27;;;4.60;;
1751;SDS011;873;47.696;8.068;2024-03-08T08:47:51;7.97;;;4.27;;
1751;SDS011;873;47.696;8.068;2024-03-08T08:50:17;10.03;;;5.17;;
1751;SDS011;873;47.696;8.068;2024-03-08T08:52:49;8.90;;;5.07;;
1751;SDS011;873;47.696;8.068;2024-03-08T08:55:15;8.83;;;4.40;;
1751;SDS011;873;47.696;8.068;2024-03-08T08:57:41;6.97;;;5.00;;
1751;SDS011;873;47.696;8.068;2024-03-08T09:00:06;7.20;;;4.67;;
1751;SDS011;873;47.696;8.068;2024-03-08T09:02:36;7.87;;;4.00;;
1751;SDS011;873;47.696;8.068;2024-03-08T09:05:02;7.27;;;4.60;;
1751;SDS011;873;47.696;8.068;2024-03-08T09:07:29;9.57;;;4.63;;
1751;SDS011;873;47.696;8.068;2024-03-08T09:09:55;8.03;;;4.57;;
1751;SDS011;873;47.696;8.068;2024-03-08T09:12:23;7.73;;;4.77;;
1751;SDS011;873;47.696;8.068;2024-03-08T09:14:49;6.73;;;4.40;;
1751;SDS011;873;47.696;8.068;2024-03-08T09:17:15;7.20;;;4.17;;
1751;SDS011;873;47.696;8.068;2024-03-08T09:19:45;8.00;;;4.63;;
1751;SDS011;873;47.696;8.068;2024-03-08T09:22:13;5.57;;;3.80;;
1751;SDS011;873;47.696;8.068;2024-03-08T09:24:39;9.40;;;4.10;;
1751;SDS011;873;47.696;8.068;2024-03-08T09:27:05;8.63;;;4.27;;
1751;SDS011;873;47.696;8.068;2024-03-08T09:29:31;6.70;;;4.53;;
1751;SDS011;873;47.696;8.068;2024-03-08T09:31:58;9.20;;;5.17;;
1751;SDS011;873;47.696;8.068;2024-03-08T09:34:23;8.97;;;4.57;;
1751;SDS011;873;47.696;8.068;2024-03-08T09:36:49;6.63;;;4.37;;
1751;SDS011;873;47.696;8.068;2024-03-08T09:39:17;6.53;;;4.00;;
1751;SDS011;873;47.696;8.068;2024-03-08T09:41:45;8.03;;;4.60;;
1751;SDS011;873;47.696;8.068;2024-03-08T09:44:14;6.93;;;3.63;;
1751;SDS011;873;47.696;8.068;2024-03-08T09:46:40;6.43;;;4.17;;
1751;SDS011;873;47.696;8.068;2024-03-08T09:49:07;5.70;;;3.67;;
1751;SDS011;873;47.696;8.068;2024-03-08T09:51:34;6.77;;;3.60;;
1751;SDS011;873;47.696;8.068;2024-03-08T09:54:03;8.93;;;4.73;;
1751;SDS011;873;47.696;8.068;2024-03-08T09:56:33;6.70;;;3.97;;
1751;SDS011;873;47.696;8.068;2024-03-08T09:59:00;6.87;;;4.00;;
1751;SDS011;873;47.696;8.068;2024-03-08T10:01:29;8.00;;;4.17;;
1751;SDS011;873;47.696;8.068;2024-03-08T10:03:54;7.73;;;3.93;;
1751;SDS011;873;47.696;8.068;2024-03-08T10:06:25;9.60;;;4.37;;
1751;SDS011;873;47.696;8.068;2024-03-08T10:08:51;7.63;;;4.57;;
1751;SDS011;873;47.696;8.068;2024-03-08T10:11:20;9.27;;;4.57;;
1751;SDS011;873;47.696;8.068;2024-03-08T10:13:47;6.87;;;4.33;;
1751;SDS011;873;47.696;8.068;2024-03-08T10:16:13;9.83;;;5.37;;
1751;SDS011;873;47.696;8.068;2024-03-08T10:18:39;7.03;;;4.07;;
1751;SDS011;873;47.696;8.068;2024-03-08T10:21:06;6.60;;;4.10;;
1751;SDS011;873;47.696;8.068;2024-03-08T10:23:35;10.30;;;5.03;;
1751;SDS011;873;47.696;8.068;2024-03-08T10:26:14;7.60;;;4.17;;
1751;SDS011;873;47.696;8.068;2024-03-08T10:28:45;9.10;;;5.20;;
1751;SDS011;873;47.696;8.068;2024-03-08T10:31:13;10.17;;;5.20;;
1751;SDS011;873;47.696;8.068;2024-03-08T10:33:40;10.77;;;4.53;;
1751;SDS011;873;47.696;8.068;2024-03-08T10:36:09;9.23;;;4.30;;
1751;SDS011;873;47.696;8.068;2024-03-08T10:38:36;9.80;;;5.70;;
1751;SDS011;873;47.696;8.068;2024-03-08T10:41:05;10.67;;;4.97;;
1751;SDS011;873;47.696;8.068;2024-03-08T10:43:32;9.27;;;4.97;;
1751;SDS011;873;47.696;8.068;2024-03-08T10:46:06;8.90;;;4.60;;
1751;SDS011;873;47.696;8.068;2024-03-08T10:48:36;9.23;;;5.13;;
1751;SDS011;873;47.696;8.068;2024-03-08T10:51:08;8.30;;;4.63;;
1751;SDS011;873;47.696;8.068;2024-03-08T10:53:36;7.47;;;4.60;;
1751;SDS011;873;47.696;8.068;2024-03-08T10:56:06;10.80;;;5.67;;
1751;SDS011;873;47.696;8.068;2024-03-08T10:58:32;11.00;;;5.50;;
1751;SDS011;873;47.696;8.068;2024-03-08T11:00:59;9.87;;;5.50;;
1751;SDS011;873;47.696;8.068;2024-03-08T11:06:07;12.47;;;6.17;;
1751;SDS011;873;47.696;8.068;2024-03-08T11:08:37;9.00;;;5.27;;
1751;SDS011;873;47.696;8.068;2024-03-08T11:11:04;8.80;;;5.67;;
1751;SDS011;873;47.696;8.068;2024-03-08T11:16:11;8.90;;;5.23;;
1751;SDS011;873;47.696;8.068;2024-03-08T11:19:01;8.33;;;5.07;;
1751;SDS011;873;47.696;8.068;2024-03-08T11:21:36;10.70;;;6.03;;
1751;SDS011;873;47.696;8.068;2024-03-08T11:24:11;12.47;;;5.57;;
1751;SDS011;873;47.696;8.068;2024-03-08T11:26:39;10.80;;;6.00;;
1751;SDS011;873;47.696;8.068;2024-03-08T11:32:07;11.47;;;5.80;;
1751;SDS011;873;47.696;8.068;2024-03-08T11:34:38;9.03;;;5.23;;
1751;SDS011;873;47.696;8.068;2024-03-08T11:37:05;8.30;;;5.63;;
1751;SDS011;873;47.696;8.068;2024-03-08T11:39:38;14.07;;;5.87;;
1751;SDS011;873;47.696;8.068;2024-03-08T11:42:05;12.20;;;5.63;;
1751;SDS011;873;47.696;8.068;2024-03-08T11:44:31;12.27;;;6.50;;
1751;SDS011;873;47.696;8.068;2024-03-08T11:46:57;11.87;;;5.67;;
1751;SDS011;873;47.696;8.068;2024-03-08T11:49:23;11.77;;;6.27;;
1751;SDS011;873;47.696;8.068;2024-03-08T11:51:52;13.57;;;6.03;;
1751;SDS011;873;47.696;8.068;2024-03-08T11:54:21;10.63;;;5.30;;
1751;SDS011;873;47.696;8.068;2024-03-08T11:56:48;10.67;;;6.40;;
1751;SDS011;873;47.696;8.068;2024-03-08T11:59:17;9.60;;;4.93;;
1751;SDS011;873;47.696;8.068;2024-03-08T12:01:43;11.73;;;6.53;;
1751;SDS011;873;47.696;8.068;2024-03-08T12:04:11;9.57;;;5.33;;
1751;SDS011;873;47.696;8.068;2024-03-08T12:06:38;11.27;;;6.47;;
1751;SDS011;873;47.696;8.068;2024-03-08T12:09:10;10.70;;;6.57;;
1751;SDS011;873;47.696;8.068;2024-03-08T12:11:36;12.17;;;7.03;;
1751;SDS011;873;47.696;8.068;2024-03-08T12:14:03;13.47;;;7.03;;
1751;SDS011;873;47.696;8.068;2024-03-08T12:16:29;10.33;;;5.83;;
1751;SDS011;873;47.696;8.068;2024-03-08T12:18:54;13.00;;;6.70;;
1751;SDS011;873;47.696;8.068;2024-03-08T12:21:20;10.67;;;5.73;;
1751;SDS011;873;47.696;8.068;2024-03-08T12:24:01;13.23;;;6.70;;
1751;SDS011;873;47.696;8.068;2024-03-08T12:26:34;13.20;;;6.20;;
1751;SDS011;873;47.696;8.068;2024-03-08T12:31:53;12.43;;;7.07;;
1751;SDS011;873;47.696;8.068;2024-03-08T12:34:20;9.57;;;6.27;;
1751;SDS011;873;47.696;8.068;2024-03-08T12:36:49;11.20;;;5.63;;
1751;SDS011;873;47.696;8.068;2024-03-08T12:39:19;9.83;;;5.40;;
1751;SDS011;873;47.696;8.068;2024-03-08T12:41:52;10.20;;;5.97;;
1751;SDS011;873;47.696;8.068;2024-03-08T12:44:18;11.13;;;6.50;;
1751;SDS011;873;47.696;8.068;2024-03-08T12:46:46;9.07;;;5.37;;
1751;SDS011;873;47.696;8.068;2024-03-08T12:49:13;7.97;;;5.30;;
1751;SDS011;873;47.696;8.068;2024-03-08T12:51:45;10.23;;;6.13;;
1751;SDS011;873;47.696;8.068;2024-03-08T12:54:11;8.97;;;5.77;;
1751;SDS011;873;47.696;8.068;2024-03-08T12:56:37;7.97;;;4.90;;
1751;SDS011;873;47.696;8.068;2024-03-08T12:59:05;7.83;;;4.93;;
1751;SDS011;873;47.696;8.068;2024-03-08T13:01:31;9.63;;;5.30;;
1751;SDS011;873;47.696;8.068;2024-03-08T13:03:57;8.20;;;5.33;;
1751;SDS011;873;47.696;8.068;2024-03-08T13:06:24;8.70;;;5.30;;
1751;SDS011;873;47.696;8.068;2024-03-08T13:08:50;8.13;;;4.80;;
1751;SDS011;873;47.696;8.068;2024-03-08T13:11:19;6.67;;;4.03;;
1751;SDS011;873;47.696;8.068;2024-03-08T13:13:45;9.47;;;5.03;;
1751;SDS011;873;47.696;8.068;2024-03-08T13:16:11;7.57;;;4.97;;
1751;SDS011;873;47.696;8.068;2024-03-08T13:18:40;6.93;;;4.63;;
1751;SDS011;873;47.696;8.068;2024-03-08T13:21:07;10.00;;;4.43;;
1751;SDS011;873;47.696;8.068;2024-03-08T13:23:34;5.73;;;3.70;;
1751;SDS011;873;47.696;8.068;2024-03-08T13:26:05;10.40;;;4.13;;
1751;SDS011;873;47.696;8.068;2024-03-08T13:28:37;7.87;;;4.60;;
1751;SDS011;873;47.696;8.068;2024-03-08T13:31:04;7.80;;;4.63;;
1751;SDS011;873;47.696;8.068;2024-03-08T13:33:35;8.30;;;5.17;;
1751;SDS011;873;47.696;8.068;2024-03-08T13:36:02;7.57;;;4.60;;
1751;SDS011;873;47.696;8.068;2024-03-08T13:38:29;8.17;;;4.93;;
1751;SDS011;873;47.696;8.068;2024-03-08T13:40:57;6.53;;;4.30;;
1751;SDS011;873;47.696;8.068;2024-03-08T13:43:23;9.70;;;4.47;;
1751;SDS011;873;47.696;8.068;2024-03-08T13:45:49;8.63;;;5.07;;
1751;SDS011;873;47.696;8.068;2024-03-08T13:48:16;7.90;;;5.33;;
1751;SDS011;873;47.696;8.068;2024-03-08T13:50:41;8.27;;;4.63;;
1751;SDS011;873;47.696;8.068;2024-03-08T13:53:07;6.50;;;4.33;;
1751;SDS011;873;47.696;8.068;2024-03-08T13:55:35;8.10;;;4.93;;
1751;SDS011;873;47.696;8.068;2024-03-08T13:58:00;10.60;;;6.37;;
1751;SDS011;873;47.696;8.068;2024-03-08T14:00:27;9.93;;;5.70;;
1751;SDS011;873;47.696;8.068;2024-03-08T14:02:58;11.87;;;7.03;;
1751;SDS011;873;47.696;8.068;2024-03-08T14:05:24;14.40;;;6.80;;
1751;SDS011;873;47.696;8.068;2024-03-08T14:07:49;10.17;;;6.17;;
1751;SDS011;873;47.696;8.068;2024-03-08T14:10:15;11.97;;;6.77;;
1751;SDS011;873;47.696;8.068;2024-03-08T14:12:42;10.63;;;6.60;;
1751;SDS011;873;47.696;8.068;2024-03-08T14:15:09;14.77;;;6.97;;
1751;SDS011;873;47.696;8.068;2024-03-08T14:17:36;13.83;;;8.00;;
1751;SDS011;873;47.696;8.068;2024-03-08T14:20:02;10.90;;;6.77;;
1751;SDS011;873;47.696;8.068;2024-03-08T14:22:29;11.73;;;7.07;;
1751;SDS011;873;47.696;8.068;2024-03-08T14:24:56;15.07;;;7.93;;
1751;SDS011;873;47.696;8.068;2024-03-08T14:27:22;14.27;;;8.13;;
1751;SDS011;873;47.696;8.068;2024-03-08T14:29:48;13.77;;;8.27;;
1751;SDS011;873;47.696;8.068;2024-03-08T14:32:13;12.93;;;7.67;;
1751;SDS011;873;47.696;8.068;2024-03-08T14:34:40;12.47;;;6.73;;
1751;SDS011;873;47.696;8.068;2024-03-08T14:37:06;11.33;;;6.83;;
1751;SDS011;873;47.696;8.068;2024-03-08T14:39:36;14.53;;;6.93;;
1751;SDS011;873;47.696;8.068;2024-03-08T14:42:05;10.53;;;7.07;;
1751;SDS011;873;47.696;8.068;2024-03-08T14:44:33;12.07;;;6.80;;
1751;SDS011;873;47.696;8.068;2024-03-08T14:46:59;12.17;;;6.33;;
1751;SDS011;873;47.696;8.068;2024-03-08T14:49:25;13.63;;;6.93;;
1751;SDS011;873;47.696;8.068;2024-03-08T14:51:55;11.83;;;6.33;;
1751;SDS011;873;47.696;8.068;2024-03-08T14:54:23;10.97;;;7.17;;
1751;SDS011;873;47.696;8.068;2024-03-08T14:56:49;12.17;;;6.70;;
1751;SDS011;873;47.696;8.068;2024-03-08T14:59:17;9.33;;;6.20;;
1751;SDS011;873;47.696;8.068;2024-03-08T15:01:45;11.83;;;5.63;;
1751;SDS011;873;47.696;8.068;2024-03-08T15:04:11;11.40;;;6.43;;
1751;SDS011;873;47.696;8.068;2024-03-08T15:06:42;11.33;;;6.77;;
1751;SDS011;873;47.696;8.068;2024-03-08T15:09:10;8.07;;;5.90;;
1751;SDS011;873;47.696;8.068;2024-03-08T15:11:40;9.83;;;5.53;;
1751;SDS011;873;47.696;8.068;2024-03-08T15:14:07;11.33;;;5.80;;
1751;SDS011;873;47.696;8.068;2024-03-08T15:16:42;11.23;;;6.27;;
1751;SDS011;873;47.696;8.068;2024-03-08T15:19:08;9.57;;;5.73;;
1751;SDS011;873;47.696;8.068;2024-03-08T15:21:37;10.13;;;6.27;;
1751;SDS011;873;47.696;8.068;2024-03-08T15:24:03;9.80;;;5.77;;
1751;SDS011;873;47.696;8.068;2024-03-08T15:26:29;8.77;;;5.97;;
1751;SDS011;873;47.696;8.068;2024-03-08T15:28:56;9.00;;;5.30;;
1751;SDS011;873;47.696;8.068;2024-03-08T15:31:25;8.77;;;5.73;;